Time;durP1;ratioP1;P1;durP2;ratioP2;P2;SDS_P1;SDS_P2;PMS_P1;PMS_P2;Temp;Humidity;BMP_temperature;BMP_pressure;BME280_temperature;BME280_humidity;BME280_pressure;Samples;Min_cycle;Max_cycle;Signal;HPM_P1;HPM_P2
2022/12/07 00:00:41;;;;;;;;;;;3.20;99.90;;;2.20;100.00;97295.72;5037131;28;20053;-47
2022/12/07 00:03:07;;;;;;;;;;;3.20;99.90;;;2.21;100.00;97297.47;5038706;28;19992;-47
2022/12/07 00:05:33;;;;;;;;;;;3.20;99.90;;;2.22;100.00;97299.16;5038997;28;19921;-45
2022/12/07 00:07:58;;;;;;;;;;;3.20;99.90;;;2.22;100.00;97299.16;5044450;28;20003;-46
2022/12/07 00:10:24;;;;;;;;;;;3.10;99.90;;;2.19;100.00;97289.66;5041451;28;19920;-47
2022/12/07 00:12:50;;;;;;;;;;;3.20;99.90;;;2.16;100.00;97287.06;5036114;28;24592;-47
2022/12/07 00:15:15;;;;;;;;;;;3.20;99.90;;;2.22;100.00;97299.16;5041965;28;19927;-44
2022/12/07 00:17:41;;;;;;;;;;;3.20;99.90;;;2.23;100.00;97299.16;5035588;28;19920;-44
2022/12/07 00:20:07;;;;;;;;;;;3.20;99.90;;;2.22;100.00;97300.03;5040798;28;20458;-45
2022/12/07 00:22:32;;;;;;;;;;;3.20;99.90;;;2.16;100.00;97283.63;5042680;28;19935;-46
2022/12/07 00:24:58;;;;;;;;;;;3.10;99.90;;;2.18;100.00;97293.13;5024878;28;20380;-46
2022/12/07 00:27:23;;;;;;;;;;;3.10;99.90;;;2.18;100.00;97289.66;5045267;28;19912;-45
2022/12/07 00:29:49;;;;;;;;;;;3.10;99.90;;;2.17;100.00;97296.63;5044267;28;19912;-47
2022/12/07 00:32:15;;;;;;;;;;;3.10;99.90;;;2.15;100.00;97295.72;5049065;28;20307;-43
2022/12/07 00:34:40;;;;;;;;;;;3.10;99.90;;;2.14;100.00;97290.56;5049187;28;19928;-47
2022/12/07 00:37:06;;;;;;;;;;;3.10;99.90;;;2.10;100.00;97290.56;5044516;28;19921;-44
2022/12/07 00:39:31;;;;;;;;;;;3.10;99.90;;;2.07;100.00;97290.56;5040620;28;20137;-44
2022/12/07 00:41:57;;;;;;;;;;;3.10;99.90;;;2.04;100.00;97284.53;5024671;28;20263;-45
2022/12/07 00:44:23;;;;;;;;;;;3.00;99.90;;;2.01;100.00;97280.22;5039368;28;20604;-44
2022/12/07 00:46:48;;;;;;;;;;;3.00;99.90;;;2.01;100.00;97282.81;5039301;28;20007;-47
2022/12/07 00:49:14;;;;;;;;;;;3.00;99.90;;;2.00;100.00;97283.69;5023246;28;19927;-45
2022/12/07 00:51:40;;;;;;;;;;;3.00;99.90;;;1.97;100.00;97288.03;5045037;28;19919;-46
2022/12/07 00:54:05;;;;;;;;;;;2.90;99.90;;;1.97;100.00;97283.69;5042307;28;19956;-47
2022/12/07 00:56:31;;;;;;;;;;;2.90;99.90;;;1.94;100.00;97286.31;5042368;28;19920;-45
2022/12/07 00:58:58;;;;;;;;;;;2.90;99.90;;;1.91;100.00;97287.19;5048244;28;20545;-48
2022/12/07 01:01:26;;;;;;;;;;;2.90;99.90;;;1.75;100.00;97262.13;5045611;28;19995;-46
2022/12/07 01:03:52;;;;;;;;;;;2.80;99.90;;;1.88;100.00;97297.63;5040478;28;20047;-44
2022/12/07 01:06:19;;;;;;;;;;;2.80;99.90;;;1.85;100.00;97299.38;5039795;28;20023;-46
2022/12/07 01:08:45;;;;;;;;;;;2.80;99.90;;;1.81;100.00;97287.22;5047022;28;19912;-47
2022/12/07 01:11:14;;;;;;;;;;;2.80;99.90;;;1.78;100.00;97293.31;5042656;28;19924;-44
2022/12/07 01:13:40;;;;;;;;;;;2.70;99.90;;;1.77;100.00;97295.91;5040262;28;19916;-46
2022/12/07 01:16:06;;;;;;;;;;;2.70;99.90;;;1.75;100.00;97285.53;5045033;28;19920;-44
2022/12/07 01:18:34;;;;;;;;;;;2.70;99.90;;;1.71;100.00;97294.22;5047021;28;19917;-47
2022/12/07 01:21:04;;;;;;;;;;;2.70;99.90;;;1.69;100.00;97291.59;5048693;28;19923;-44
2022/12/07 01:23:31;;;;;;;;;;;2.60;99.90;;;1.67;100.00;97295.97;5047997;28;19924;-44
2022/12/07 01:25:58;;;;;;;;;;;2.60;99.90;;;1.70;100.00;97295.06;5045864;28;19930;-45
2022/12/07 01:28:24;;;;;;;;;;;2.60;99.90;;;1.69;100.00;97293.34;5045708;28;20327;-44
2022/12/07 01:31:00;;;;;;;;;;;2.70;99.90;;;1.68;100.00;97297.66;5044455;28;19924;-47
2022/12/07 01:33:30;;;;;;;;;;;2.60;99.90;;;1.68;100.00;97297.66;5047501;28;19912;-44
2022/12/07 01:36:08;;;;;;;;;;;2.60;99.90;;;1.66;100.00;97299.41;5031639;28;19920;-44
2022/12/07 01:38:34;;;;;;;;;;;2.60;99.90;;;1.63;100.00;97306.34;5041859;28;19916;-44
2022/12/07 01:41:00;;;;;;;;;;;2.60;99.90;;;1.63;100.00;97304.63;5047736;28;19966;-46
2022/12/07 01:43:27;;;;;;;;;;;2.60;99.90;;;1.66;100.00;97307.22;5043381;28;19927;-44
2022/12/07 01:45:53;;;;;;;;;;;2.60;99.90;;;1.66;100.00;97304.63;5043255;28;20013;-44
2022/12/07 01:48:26;;;;;;;;;;;2.60;99.90;;;1.67;100.00;97310.66;5041345;28;19999;-44
2022/12/07 01:50:53;;;;;;;;;;;2.60;99.90;;;1.63;100.00;97303.75;5028789;28;20418;-47
2022/12/07 01:53:19;;;;;;;;;;;2.60;99.90;;;1.67;100.00;97305.47;5047115;28;19939;-47
2022/12/07 01:55:46;;;;;;;;;;;2.60;99.90;;;1.70;100.00;97303.72;5033069;28;20448;-43
2022/12/07 01:58:12;;;;;;;;;;;2.60;99.90;;;1.68;100.00;97304.63;5030019;28;20456;-47
2022/12/07 02:00:38;;;;;;;;;;;2.60;99.90;;;1.67;100.00;97295.97;5051244;28;20058;-44
2022/12/07 02:03:11;;;;;;;;;;;2.60;99.90;;;1.70;100.00;97303.72;5051440;28;19921;-44
2022/12/07 02:05:38;;;;;;;;;;;2.60;99.90;;;1.69;100.00;97307.22;5024930;28;19916;-45
2022/12/07 02:08:04;;;;;;;;;;;2.60;99.90;;;1.67;100.00;97314.16;5025191;28;19919;-45
2022/12/07 02:10:31;;;;;;;;;;;2.60;99.90;;;1.67;100.00;97306.34;5040107;28;19924;-45
2022/12/07 02:13:06;;;;;;;;;;;2.60;99.90;;;1.65;100.00;97305.50;5043880;28;19920;-45
2022/12/07 02:16:10;;;;;;;;;;;2.60;99.90;;;1.65;100.00;97300.31;5030631;28;19998;-44
2022/12/07 02:18:48;;;;;;;;;;;2.60;99.90;;;1.65;100.00;97305.50;5030917;28;20620;-44
2022/12/07 02:21:26;;;;;;;;;;;2.60;99.90;;;1.64;100.00;97303.75;5048175;28;19924;-47
2022/12/07 02:24:11;;;;;;;;;;;2.60;99.90;;;1.63;100.00;97294.22;5045869;28;20470;-43
2022/12/07 02:26:48;;;;;;;;;;;2.60;99.90;;;1.63;100.00;97294.22;5043114;28;19927;-45
2022/12/07 02:29:23;;;;;;;;;;;2.60;99.90;;;1.66;100.00;97295.97;5024989;28;20400;-44
2022/12/07 02:31:55;;;;;;;;;;;2.60;99.90;;;1.62;100.00;97292.50;5027536;28;21189;-44
2022/12/07 02:34:43;;;;;;;;;;;2.60;99.90;;;1.63;100.00;97289.00;5030729;28;20492;-45
2022/12/07 02:37:48;;;;;;;;;;;2.60;99.90;;;1.62;100.00;97283.84;5041107;28;19920;-47
2022/12/07 02:40:29;;;;;;;;;;;2.60;99.90;;;1.62;100.00;97289.91;5032438;28;20442;-47
2022/12/07 02:43:14;;;;;;;;;;;2.60;99.90;;;1.64;100.00;97285.56;5029288;28;23780;-45
2022/12/07 02:45:41;;;;;;;;;;;2.60;99.90;;;1.63;100.00;97278.63;5027286;28;20671;-47
2022/12/07 02:48:08;;;;;;;;;;;2.60;99.90;;;1.58;100.00;97269.09;5024151;28;19985;-44
2022/12/07 02:50:34;;;;;;;;;;;2.60;99.90;;;1.61;100.00;97274.31;5010588;28;19912;-46
2022/12/07 02:53:00;;;;;;;;;;;2.60;99.90;;;1.61;100.00;97282.09;5034849;28;19920;-44
2022/12/07 02:55:29;;;;;;;;;;;2.60;99.90;;;1.62;100.00;97276.91;5038022;28;20332;-44
2022/12/07 02:58:16;;;;;;;;;;;2.60;99.90;;;1.63;100.00;97268.22;5039307;28;21255;-45
2022/12/07 03:01:14;;;;;;;;;;;2.60;99.90;;;1.62;100.00;97268.25;5035394;28;19982;-46
2022/12/07 03:03:40;;;;;;;;;;;2.60;99.90;;;1.61;100.00;97263.91;5039289;28;20269;-44
2022/12/07 03:06:11;;;;;;;;;;;2.60;99.90;;;1.66;100.00;97273.41;5024387;28;19968;-43
2022/12/07 03:08:56;;;;;;;;;;;2.60;99.90;;;1.66;100.00;97265.63;5024867;28;20712;-45
2022/12/07 03:11:31;;;;;;;;;;;2.60;99.90;;;1.67;100.00;97267.34;5026266;28;19967;-44
2022/12/07 03:14:18;;;;;;;;;;;2.60;99.90;;;1.67;100.00;97263.88;5022114;28;19993;-46
2022/12/07 03:17:04;;;;;;;;;;;2.60;99.90;;;1.64;100.00;97256.97;5027512;28;19928;-45
2022/12/07 03:19:32;;;;;;;;;;;2.60;99.90;;;1.62;100.00;97256.09;5030609;28;19916;-45
2022/12/07 03:22:00;;;;;;;;;;;2.60;99.90;;;1.64;100.00;97258.72;5045352;28;19927;-48
2022/12/07 03:24:28;;;;;;;;;;;2.60;99.90;;;1.64;100.00;97259.56;5034005;28;20082;-45
2022/12/07 03:27:03;;;;;;;;;;;2.60;99.90;;;1.66;100.00;97265.63;5021651;28;19970;-47
2022/12/07 03:29:33;;;;;;;;;;;2.60;99.90;;;1.67;100.00;97267.34;5042229;28;19920;-43
2022/12/07 03:32:03;;;;;;;;;;;2.60;99.90;;;1.68;100.00;97263.88;5039510;28;19923;-44
2022/12/07 03:34:49;;;;;;;;;;;2.60;99.90;;;1.69;100.00;97257.81;5026124;28;19954;-44
2022/12/07 03:37:20;;;;;;;;;;;2.60;99.90;;;1.70;100.00;97254.31;5028495;28;19916;-47
2022/12/07 03:39:54;;;;;;;;;;;2.60;99.90;;;1.70;100.00;97256.91;5031080;28;19931;-45
2022/12/07 03:42:20;;;;;;;;;;;2.60;99.90;;;1.71;100.00;97250.00;5027169;28;19948;-47
2022/12/07 03:44:45;;;;;;;;;;;2.60;99.90;;;1.68;100.00;97248.28;5039029;28;19998;-45
2022/12/07 03:47:16;;;;;;;;;;;2.60;99.90;;;1.67;100.00;97259.56;5023090;28;20561;-45
2022/12/07 03:49:46;;;;;;;;;;;2.60;99.90;;;1.63;100.00;97252.63;5037881;28;19920;-45
2022/12/07 03:52:18;;;;;;;;;;;2.60;99.90;;;1.58;100.00;97258.72;5023212;28;20018;-48
2022/12/07 03:54:45;;;;;;;;;;;2.50;99.90;;;1.58;100.00;97251.81;5042126;28;19919;-45
2022/12/07 03:57:11;;;;;;;;;;;2.50;99.90;;;1.48;100.00;97243.16;5025425;28;19921;-47
2022/12/07 03:59:38;;;;;;;;;;;2.50;99.90;;;1.49;100.00;97244.91;5039445;28;19920;-46
2022/12/07 04:02:05;;;;;;;;;;;2.40;99.90;;;1.51;100.00;97247.50;5023610;28;20572;-46
2022/12/07 04:04:31;;;;;;;;;;;2.40;99.90;;;1.45;100.00;97252.69;5040087;28;20366;-44
2022/12/07 04:06:57;;;;;;;;;;;2.40;99.90;;;1.40;100.00;97247.53;5023927;28;19924;-47
2022/12/07 04:09:22;;;;;;;;;;;2.40;99.90;;;1.29;100.00;97237.16;5039626;28;19931;-45
2022/12/07 04:11:48;;;;;;;;;;;2.30;99.90;;;1.11;100.00;97214.69;5039342;28;20566;-46
2022/12/07 04:14:20;;;;;;;;;;;2.20;99.90;;;1.26;100.00;97236.31;5034736;28;20419;-46
2022/12/07 04:16:50;;;;;;;;;;;2.20;99.90;;;1.08;100.00;97203.47;5042857;28;19930;-45
2022/12/07 04:19:17;;;;;;;;;;;2.20;99.90;;;1.21;100.00;97236.31;5045704;28;19977;-44
2022/12/07 04:21:43;;;;;;;;;;;2.20;99.90;;;1.26;100.00;97228.53;5044600;28;19944;-44
2022/12/07 04:24:08;;;;;;;;;;;2.20;99.90;;;1.23;100.00;97228.53;5037620;28;20280;-46
2022/12/07 04:26:34;;;;;;;;;;;2.20;99.90;;;1.05;100.00;97198.25;5060247;22;20006;-57
2022/12/07 04:29:00;;;;;;;;;;;2.20;99.90;;;1.18;100.00;97227.66;5043442;28;19955;-57
2022/12/07 04:31:25;;;;;;;;;;;2.20;99.90;;;1.15;100.00;97223.34;5045883;28;19912;-57
2022/12/07 04:33:51;;;;;;;;;;;2.20;99.90;;;1.14;100.00;97211.22;5049788;28;20524;-57
2022/12/07 04:36:17;;;;;;;;;;;2.10;99.90;;;1.09;100.00;97205.16;5024333;28;19922;-56
2022/12/07 04:38:42;;;;;;;;;;;2.10;99.90;;;1.14;100.00;97208.63;5041480;28;20484;-57
2022/12/07 04:41:09;;;;;;;;;;;2.10;99.90;;;1.18;100.00;97206.88;5035889;28;19931;-56
2022/12/07 04:43:35;;;;;;;;;;;2.10;99.90;;;1.21;100.00;97201.69;5041361;28;19920;-57
2022/12/07 04:46:01;;;;;;;;;;;2.20;99.90;;;1.19;100.00;97193.91;5034953;28;19946;-56
2022/12/07 04:48:27;;;;;;;;;;;2.20;99.90;;;1.26;100.00;97200.81;5037707;28;20080;-57
2022/12/07 04:50:52;;;;;;;;;;;2.20;99.90;;;1.24;100.00;97199.94;5043617;28;20315;-56
2022/12/07 04:53:18;;;;;;;;;;;2.20;99.90;;;1.20;100.00;97199.94;5039409;28;20232;-59
2022/12/07 04:55:45;;;;;;;;;;;2.20;99.90;;;1.21;100.00;97202.53;5035831;28;19916;-59
2022/12/07 04:58:11;;;;;;;;;;;2.20;99.90;;;1.22;100.00;97196.50;5040705;28;20077;-59
2022/12/07 05:00:37;;;;;;;;;;;2.20;99.90;;;1.20;100.00;97198.19;5036787;28;20197;-59
2022/12/07 05:03:03;;;;;;;;;;;2.20;99.90;;;1.24;100.00;97199.06;5043391;28;19926;-59
2022/12/07 05:05:28;;;;;;;;;;;2.20;99.90;;;1.25;100.00;97203.41;5038500;28;20336;-59
2022/12/07 05:07:54;;;;;;;;;;;2.20;99.90;;;1.28;100.00;97212.03;5031207;28;19927;-59
2022/12/07 05:10:20;;;;;;;;;;;2.20;99.90;;;1.12;100.00;97190.44;5030750;28;20360;-55
2022/12/07 05:12:46;;;;;;;;;;;2.20;99.90;;;1.16;100.00;97213.81;5051854;28;20376;-53
2022/12/07 05:15:12;;;;;;;;;;;2.20;99.90;;;1.05;100.00;97219.03;5028652;28;19924;-54
2022/12/07 05:17:38;;;;;;;;;;;2.00;99.90;;;1.03;100.00;97215.59;5031706;28;19923;-57
2022/12/07 05:20:04;;;;;;;;;;;2.00;99.90;;;0.97;100.00;97228.56;5031410;28;19921;-55
2022/12/07 05:22:30;;;;;;;;;;;2.00;99.90;;;0.94;100.00;97219.06;5037498;28;19934;-59
2022/12/07 05:24:55;;;;;;;;;;;1.90;99.90;;;0.88;100.00;97213.88;5030331;28;20632;-56
2022/12/07 05:27:21;;;;;;;;;;;1.80;99.90;;;0.56;100.00;97200.06;5031598;28;20013;-58
2022/12/07 05:29:47;;;;;;;;;;;1.70;99.90;;;0.71;100.00;97237.25;5033116;28;19920;-57
2022/12/07 05:32:12;;;;;;;;;;;1.60;99.90;;;0.67;100.00;97235.53;5024748;28;21667;-59
2022/12/07 05:34:38;;;;;;;;;;;1.60;99.90;;;0.50;100.00;97238.13;5029170;28;19972;-60
2022/12/07 05:37:04;;;;;;;;;;;1.50;99.90;;;0.30;100.00;97227.72;5025615;28;19956;-60
2022/12/07 05:39:29;;;;;;;;;;;1.40;99.90;;;0.31;100.00;97234.66;5040478;28;20364;-59
2022/12/07 05:42:13;;;;;;;;;;;1.30;99.90;;;0.31;100.00;97237.25;5022642;28;19924;-60
2022/12/07 05:44:39;;;;;;;;;;;1.30;99.90;;;0.28;100.00;97248.47;5036822;28;19924;-60
2022/12/07 05:47:05;;;;;;;;;;;1.30;99.90;;;0.19;100.00;97235.50;5025050;28;20121;-61
2022/12/07 05:49:31;;;;;;;;;;;1.30;99.90;;;0.23;100.00;97236.38;5035488;28;19912;-60
2022/12/07 05:51:57;;;;;;;;;;;1.30;99.90;;;0.25;100.00;97245.00;5037739;28;20585;-59
2022/12/07 05:54:22;;;;;;;;;;;1.30;99.90;;;0.28;100.00;97248.47;5040295;28;20984;-59
2022/12/07 05:56:48;;;;;;;;;;;1.30;99.90;;;0.41;100.00;97249.34;5033921;28;19920;-59
2022/12/07 05:59:23;;;;;;;;;;;1.40;99.90;;;0.46;100.00;97245.03;5050849;28;19971;-60
2022/12/07 06:02:03;;;;;;;;;;;1.50;99.90;;;0.47;100.00;97223.44;5050577;28;19913;-59
2022/12/07 06:04:31;;;;;;;;;;;1.50;99.90;;;0.62;100.00;97232.06;5048328;28;20368;-59
2022/12/07 06:06:57;;;;;;;;;;;1.60;99.90;;;0.72;100.00;97244.19;5040148;28;19920;-59
2022/12/07 06:09:24;;;;;;;;;;;1.70;99.90;;;0.77;100.00;97242.44;5050644;28;19913;-59
2022/12/07 06:14:34;;;;;;;;;;;1.70;99.90;;;0.85;100.00;97234.66;5046986;28;19940;-60
2022/12/07 06:17:00;;;;;;;;;;;1.80;99.90;;;0.89;100.00;97246.75;5045850;28;19916;-60
2022/12/07 06:19:26;;;;;;;;;;;1.80;99.90;;;0.88;100.00;97255.41;5045647;28;19921;-60
2022/12/07 06:21:51;;;;;;;;;;;1.90;99.90;;;0.99;100.00;97250.19;5046653;28;20608;-60
2022/12/07 06:24:17;;;;;;;;;;;1.90;99.90;;;1.05;100.00;97253.66;5049224;28;20384;-60
2022/12/07 06:26:43;;;;;;;;;;;2.00;99.90;;;1.10;100.00;97256.25;5001015;28;1025883;-60
2022/12/07 06:29:10;;;;;;;;;;;2.00;99.90;;;1.11;100.00;97253.66;5047680;28;19973;-60
2022/12/07 06:31:36;;;;;;;;;;;2.00;99.90;;;1.07;100.00;97240.69;5052656;28;19920;-61
2022/12/07 06:34:10;;;;;;;;;;;2.10;99.90;;;1.09;100.00;97238.94;5050812;28;20239;-60
2022/12/07 06:36:35;;;;;;;;;;;2.10;99.90;;;1.13;100.00;97254.53;5051926;28;19927;-60
2022/12/07 06:39:02;;;;;;;;;;;2.10;99.90;;;1.17;100.00;97246.69;5050162;28;20292;-60
2022/12/07 06:41:28;;;;;;;;;;;2.10;99.90;;;1.13;100.00;97245.84;5050003;28;19920;-60
2022/12/07 06:43:53;;;;;;;;;;;2.10;99.90;;;1.08;100.00;97238.06;5043001;28;20071;-60
2022/12/07 06:46:19;;;;;;;;;;;2.10;99.90;;;1.05;100.00;97243.28;5051047;28;20379;-61
2022/12/07 06:48:45;;;;;;;;;;;2.00;99.90;;;1.02;100.00;97245.88;5034658;28;19975;-61
2022/12/07 06:51:11;;;;;;;;;;;2.00;99.90;;;1.01;100.00;97240.69;5048487;28;19970;-60
2022/12/07 06:53:36;;;;;;;;;;;2.00;99.90;;;1.05;100.00;97245.00;5043531;28;20427;-61
2022/12/07 06:56:03;;;;;;;;;;;2.00;99.90;;;1.07;100.00;97246.72;5034442;28;20455;-61
2022/12/07 06:58:28;;;;;;;;;;;2.00;99.90;;;1.05;100.00;97239.81;5050630;28;19920;-60
2022/12/07 07:00:54;;;;;;;;;;;2.00;99.90;;;1.09;100.00;97255.38;5046703;28;19921;-61
2022/12/07 07:03:20;;;;;;;;;;;2.00;99.90;;;1.10;100.00;97254.53;5051464;28;20604;-61
2022/12/07 07:05:46;;;;;;;;;;;2.10;99.90;;;1.12;100.00;97260.56;5051971;28;20003;-60
2022/12/07 07:08:12;;;;;;;;;;;2.10;99.90;;;1.20;100.00;97257.94;5040819;28;20358;-60
2022/12/07 07:10:37;;;;;;;;;;;2.20;99.90;;;1.23;100.00;97262.28;5045640;28;20195;-61
2022/12/07 07:13:03;;;;;;;;;;;2.20;99.90;;;1.29;100.00;97255.34;5046606;28;19993;-61
2022/12/07 07:15:29;;;;;;;;;;;2.20;99.90;;;1.32;100.00;97260.53;5046636;28;19920;-61
2022/12/07 07:17:55;;;;;;;;;;;2.30;99.90;;;1.38;100.00;97261.38;5047805;28;20324;-61
2022/12/07 07:20:20;;;;;;;;;;;2.30;99.90;;;1.46;100.00;97262.22;5043123;28;19943;-61
2022/12/07 07:22:46;;;;;;;;;;;2.30;99.90;;;1.47;100.00;97266.53;5026360;28;20022;-61
2022/12/07 07:25:12;;;;;;;;;;;2.40;99.90;;;1.49;100.00;97270.88;5043323;28;19924;-59
2022/12/07 07:27:37;;;;;;;;;;;2.40;99.90;;;1.53;100.00;97266.53;5040733;28;19927;-60
2022/12/07 07:30:04;;;;;;;;;;;2.50;99.90;;;1.58;100.00;97271.72;5036752;28;19916;-61
2022/12/07 07:32:30;;;;;;;;;;;2.50;99.90;;;1.58;100.00;97275.19;5042303;28;19912;-60
2022/12/07 07:34:55;;;;;;;;;;;2.50;99.90;;;1.64;100.00;97276.91;5040683;28;20253;-60
2022/12/07 07:37:21;;;;;;;;;;;2.60;99.90;;;1.68;100.00;97274.28;5052137;28;19974;-60
2022/12/07 07:39:47;;;;;;;;;;;2.60;99.90;;;1.58;100.00;97256.13;5050463;28;20019;-59
2022/12/07 07:42:12;;;;;;;;;;;2.60;99.90;;;1.76;100.00;97282.06;5047763;28;20053;-59
2022/12/07 07:44:38;;;;;;;;;;;2.70;99.90;;;1.81;100.00;97279.44;5045284;28;20010;-59
2022/12/07 07:47:03;;;;;;;;;;;2.70;99.90;;;1.81;100.00;97276.81;5045772;28;19938;-59
2022/12/07 07:49:29;;;;;;;;;;;2.80;99.90;;;1.87;100.00;97284.63;5045560;28;19920;-59
2022/12/07 07:51:55;;;;;;;;;;;2.80;99.90;;;1.91;100.00;97286.31;5045165;28;20374;-59
2022/12/07 07:54:20;;;;;;;;;;;2.80;99.90;;;1.95;100.00;97292.38;5049819;28;19931;-59
2022/12/07 07:56:46;;;;;;;;;;;2.80;99.90;;;2.00;100.00;97290.63;5047633;28;19946;-59
2022/12/07 07:59:11;;;;;;;;;;;2.90;99.90;;;2.04;100.00;97284.53;5033110;28;19924;-59
2022/12/07 08:01:37;;;;;;;;;;;3.00;99.90;;;2.10;100.00;97284.50;5034037;28;19951;-59
2022/12/07 08:04:02;;;;;;;;;;;3.00;99.90;;;2.15;100.00;97284.47;5043739;28;19928;-58
2022/12/07 08:06:28;;;;;;;;;;;3.00;99.90;;;2.22;100.00;97286.16;5039812;28;20346;-59
2022/12/07 08:08:54;;;;;;;;;;;3.10;99.90;;;2.26;100.00;97288.75;5029263;28;19977;-59
2022/12/07 08:11:19;;;;;;;;;;;3.20;99.90;;;2.29;100.00;97290.47;5047926;28;19932;-58
2022/12/07 08:13:49;;;;;;;;;;;3.20;99.90;;;2.25;100.00;97284.41;5032229;28;20471;-59
2022/12/07 08:16:15;;;;;;;;;;;3.20;99.90;;;2.34;100.00;97293.91;5049757;28;19956;-60
2022/12/07 08:18:41;;;;;;;;;;;3.30;99.90;;;2.36;100.00;97284.34;5050359;28;19920;-59
2022/12/07 08:21:11;;;;;;;;;;;3.30;99.90;;;2.43;100.00;97286.03;5048457;28;20106;-59
2022/12/07 08:23:36;;;;;;;;;;;3.30;99.90;;;2.48;100.00;97289.47;5052581;28;19916;-59
2022/12/07 08:26:03;;;;;;;;;;;3.40;99.90;;;2.48;100.00;97276.47;5050921;28;20000;-59
2022/12/07 08:28:29;;;;;;;;;;;3.40;99.90;;;2.53;100.00;97289.47;5040420;28;20023;-59
2022/12/07 08:30:59;;;;;;;;;;;3.40;99.90;;;2.53;100.00;97294.66;5041324;28;19920;-58
2022/12/07 08:33:25;;;;;;;;;;;3.50;99.90;;;2.57;100.00;97293.75;5044624;28;20342;-59
2022/12/07 08:35:51;;;;;;;;;;;3.50;99.90;;;2.60;100.00;97298.97;5047872;28;19942;-59
2022/12/07 08:38:17;;;;;;;;;;;3.50;99.90;;;2.65;100.00;97294.56;5042758;28;20363;-59
2022/12/07 08:40:42;;;;;;;;;;;3.60;99.90;;;2.74;100.00;97298.84;5045438;28;20380;-61
2022/12/07 08:43:08;;;;;;;;;;;3.60;99.90;;;2.60;100.00;97280.72;5046294;28;20358;-59
2022/12/07 08:45:35;;;;;;;;;;;3.70;99.90;;;2.84;100.00;97307.47;5047143;28;19932;-59
2022/12/07 08:48:10;;;;;;;;;;;3.70;99.90;;;2.90;100.00;97302.19;5049714;28;19923;-59
2022/12/07 08:50:36;;;;;;;;;;;3.80;99.90;;;3.00;100.00;97300.38;5048798;28;19924;-59
2022/12/07 08:53:03;;;;;;;;;;;3.90;99.90;;;3.08;100.00;97298.56;5048825;28;20003;-59
2022/12/07 08:55:29;;;;;;;;;;;4.00;99.90;;;3.12;100.00;97302.00;5032591;28;19970;-58
2022/12/07 08:57:54;;;;;;;;;;;4.00;99.90;;;3.21;100.00;97304.53;5044088;28;20420;-59
2022/12/07 09:00:20;;;;;;;;;;;4.10;99.90;;;3.29;100.00;97304.47;5033790;28;19917;-59
2022/12/07 09:02:46;;;;;;;;;;;4.10;99.90;;;3.23;100.00;97288.00;5039384;28;19979;-59
2022/12/07 09:05:14;;;;;;;;;;;4.20;99.90;;;3.46;100.00;97306.91;5047406;28;19920;-59
2022/12/07 09:07:41;;;;;;;;;;;4.30;99.90;;;3.47;100.00;97287.78;5050088;28;20371;-59
2022/12/07 09:10:07;;;;;;;;;;;4.40;99.90;;;3.58;100.00;97302.41;5022070;28;19916;-60
2022/12/07 09:12:33;;;;;;;;;;;4.50;99.90;;;3.68;100.00;97294.47;5051408;28;19920;-60
2022/12/07 09:15:00;;;;;;;;;;;4.50;99.90;;;3.70;100.00;97304.03;5048292;28;19924;-60
2022/12/07 09:17:26;;;;;;;;;;;4.60;99.90;;;3.82;100.00;97298.69;5047640;28;20105;-59
2022/12/07 09:19:52;;;;;;;;;;;4.70;99.90;;;3.94;100.00;97302.88;5044656;28;20062;-60
2022/12/07 09:22:17;;;;;;;;;;;4.80;99.90;;;4.04;100.00;97297.53;5047693;28;20398;-60
2022/12/07 09:24:45;;;;;;;;;;;4.90;99.90;;;4.07;100.00;97307.94;5049109;28;19959;-60
2022/12/07 09:27:11;;;;;;;;;;;4.90;99.90;;;4.11;100.00;97307.91;5047630;28;19913;-60
2022/12/07 09:29:37;;;;;;;;;;;4.90;99.90;;;4.12;100.00;97298.31;5047288;28;19912;-60
2022/12/07 09:32:02;;;;;;;;;;;5.00;99.90;;;4.17;100.00;97299.97;5050560;28;19921;-60
2022/12/07 09:34:31;;;;;;;;;;;5.10;99.90;;;4.23;100.00;97295.56;5048762;28;19963;-59
2022/12/07 09:36:56;;;;;;;;;;;5.10;99.90;;;4.27;100.00;97302.47;5040962;28;20007;-60
2022/12/07 09:39:22;;;;;;;;;;;5.20;99.90;;;4.32;100.00;97298.03;5044237;28;19920;-59
2022/12/07 09:41:48;;;;;;;;;;;5.20;99.90;;;4.40;100.00;97299.66;5052014;28;19920;-60
2022/12/07 09:44:18;;;;;;;;;;;5.20;99.90;;;4.40;100.00;97302.28;5047196;28;19924;-59
2022/12/07 09:46:44;;;;;;;;;;;5.30;99.90;;;4.35;100.00;97306.69;5057522;28;19912;-60
2022/12/07 09:49:16;;;;;;;;;;;5.30;99.90;;;4.33;100.00;97295.41;5036742;28;20015;-59
2022/12/07 09:51:42;;;;;;;;;;;5.20;99.90;;;4.36;100.00;97284.94;5034887;28;19916;-59
2022/12/07 09:54:09;;;;;;;;;;;5.30;99.90;;;4.38;100.00;97288.38;5057877;28;20403;-60
2022/12/07 09:56:34;;;;;;;;;;;5.30;99.90;;;4.39;100.00;97284.88;5024215;28;20011;-60
2022/12/07 09:59:02;;;;;;;;;;;5.30;99.90;;;4.38;100.00;97284.91;5050697;28;19919;-60
2022/12/07 10:01:31;;;;;;;;;;;5.30;99.90;;;4.40;100.00;97291.84;5029603;28;19979;-60
2022/12/07 10:04:14;;;;;;;;;;;5.30;99.90;;;4.48;100.00;97283.88;5045188;28;19916;-59
2022/12/07 10:06:40;;;;;;;;;;;5.40;99.90;;;4.50;100.00;97260.34;5053480;28;20399;-59
2022/12/07 10:09:14;;;;;;;;;;;5.40;99.90;;;4.51;100.00;97276.00;5043737;28;19943;-59
2022/12/07 10:12:01;;;;;;;;;;;5.50;99.90;;;4.63;100.00;97266.25;5051677;28;20253;-60
2022/12/07 10:14:29;;;;;;;;;;;5.50;99.90;;;4.67;100.00;97260.97;5052514;28;19942;-60
2022/12/07 10:16:54;;;;;;;;;;;5.50;99.90;;;4.71;100.00;97265.25;5041651;28;20003;-60
2022/12/07 10:19:24;;;;;;;;;;;5.50;99.90;;;4.73;100.00;97260.00;5048400;28;20399;-59
2022/12/07 10:22:09;;;;;;;;;;;5.60;99.90;;;4.75;100.00;97258.22;5053800;28;19921;-59
2022/12/07 10:24:37;;;;;;;;;;;5.60;99.90;;;4.81;100.00;97257.25;5045128;28;19923;-59
2022/12/07 10:27:02;;;;;;;;;;;5.70;99.90;;;4.77;100.00;97254.72;5084000;22;19928;-43
2022/12/07 10:29:34;;;;;;;;;;;5.70;99.90;;;4.73;100.00;97239.09;5074569;28;20092;-45
2022/12/07 10:32:25;;;;;;;;;;;5.70;99.90;;;4.78;100.00;97251.19;5050534;28;19916;-42
2022/12/07 10:34:51;;;;;;;;;;;5.70;99.90;;;4.94;100.00;97256.19;5073298;28;20015;-43
2022/12/07 10:37:20;;;;;;;;;;;5.70;99.90;;;5.03;100.00;97257.78;5050275;28;19919;-43
2022/12/07 10:39:51;;;;;;;;;;;5.80;99.90;;;5.09;100.00;97249.81;5066816;28;19920;-42
2022/12/07 10:42:18;;;;;;;;;;;5.90;99.90;;;5.11;100.00;97258.50;5067455;28;20555;-43
2022/12/07 10:44:43;;;;;;;;;;;5.90;99.90;;;5.04;100.00;97249.03;5062532;28;20007;-41
2022/12/07 10:47:19;;;;;;;;;;;5.90;99.90;;;5.00;100.00;97255.22;5052122;28;19915;-42
2022/12/07 10:49:48;;;;;;;;;;;5.90;99.90;;;4.85;100.00;97248.50;5060158;28;19955;-42
2022/12/07 10:52:24;;;;;;;;;;;5.80;99.90;;;4.81;100.00;97245.09;5064024;28;20445;-39
2022/12/07 10:55:12;;;;;;;;;;;5.80;99.90;;;4.86;100.00;97242.38;5053994;28;19916;-42
2022/12/07 10:57:57;;;;;;;;;;;5.70;99.90;;;4.82;100.00;97238.09;5052611;28;20933;-42
2022/12/07 11:00:24;;;;;;;;;;;5.70;99.90;;;4.67;100.00;97236.59;5064030;28;19920;-43
2022/12/07 11:02:50;;;;;;;;;;;5.60;99.90;;;4.51;100.00;97225.53;5065833;28;19912;-42
2022/12/07 11:05:39;;;;;;;;;;;5.50;99.90;;;4.46;100.00;97227.34;5067663;28;19926;-39
2022/12/07 11:08:18;;;;;;;;;;;5.40;99.90;;;4.44;100.00;97227.38;5056539;28;19912;-42
2022/12/07 11:10:55;;;;;;;;;;;5.30;99.90;;;4.37;100.00;97221.38;5054106;28;19922;-43
2022/12/07 11:13:24;;;;;;;;;;;5.30;99.90;;;4.42;100.00;97223.94;5067640;28;20011;-42
2022/12/07 11:16:23;;;;;;;;;;;5.30;99.90;;;4.52;100.00;97217.69;5058055;28;19908;-42
2022/12/07 11:19:26;;;;;;;;;;;5.40;99.90;;;4.47;100.00;97216.88;5067696;28;19927;-42
2022/12/07 11:21:58;;;;;;;;;;;5.40;99.90;;;4.44;100.00;97211.69;5069118;28;20284;-43
2022/12/07 11:24:36;;;;;;;;;;;5.40;99.90;;;4.54;100.00;97215.03;5053372;28;19912;-42
2022/12/07 11:27:14;;;;;;;;;;;5.40;99.90;;;4.49;100.00;97195.97;5067836;28;20268;-43
2022/12/07 11:30:13;;;;;;;;;;;5.30;99.90;;;4.48;100.00;97213.38;5046382;28;19952;-42
2022/12/07 11:32:57;;;;;;;;;;;5.40;99.90;;;4.42;100.00;97207.41;5069911;28;20455;-42
2022/12/07 11:35:41;;;;;;;;;;;5.30;99.90;;;4.42;100.00;97200.44;5062172;28;19970;-43